sensor_id;sensor_type;location;lat;lon;timestamp;P1;durP1;ratioP1;P2;durP2;ratioP2
53269;SDS011;39159;45.634;9.420;2023-09-18T00:01:46;11.85;;;6.25;;
53269;SDS011;39159;45.634;9.420;2023-09-18T00:04:11;13.40;;;6.93;;
53269;SDS011;39159;45.634;9.420;2023-09-18T00:06:37;9.82;;;6.28;;
53269;SDS011;39159;45.634;9.420;2023-09-18T00:09:02;7.78;;;5.97;;
53269;SDS011;39159;45.634;9.420;2023-09-18T00:11:27;9.20;;;5.95;;
53269;SDS011;39159;45.634;9.420;2023-09-18T00:13:53;10.00;;;6.10;;
53269;SDS011;39159;45.634;9.420;2023-09-18T00:16:18;11.80;;;6.35;;
53269;SDS011;39159;45.634;9.420;2023-09-18T00:18:44;10.38;;;6.43;;
53269;SDS011;39159;45.634;9.420;2023-09-18T00:21:09;9.02;;;6.18;;
53269;SDS011;39159;45.634;9.420;2023-09-18T00:23:38;14.48;;;6.38;;
53269;SDS011;39159;45.634;9.420;2023-09-18T00:26:03;10.27;;;6.78;;
53269;SDS011;39159;45.634;9.420;2023-09-18T00:28:29;9.15;;;5.90;;
53269;SDS011;39159;45.634;9.420;2023-09-18T00:30:55;13.50;;;5.68;;
53269;SDS011;39159;45.634;9.420;2023-09-18T00:33:20;9.63;;;6.20;;
53269;SDS011;39159;45.634;9.420;2023-09-18T00:35:49;10.13;;;5.63;;
53269;SDS011;39159;45.634;9.420;2023-09-18T00:38:15;9.82;;;6.07;;
53269;SDS011;39159;45.634;9.420;2023-09-18T00:40:41;11.32;;;5.75;;
53269;SDS011;39159;45.634;9.420;2023-09-18T00:43:07;9.07;;;5.70;;
53269;SDS011;39159;45.634;9.420;2023-09-18T00:45:34;12.48;;;5.57;;
53269;SDS011;39159;45.634;9.420;2023-09-18T00:48:04;9.15;;;5.10;;
53269;SDS011;39159;45.634;9.420;2023-09-18T00:50:30;10.73;;;5.75;;
53269;SDS011;39159;45.634;9.420;2023-09-18T00:52:56;9.88;;;5.68;;
53269;SDS011;39159;45.634;9.420;2023-09-18T00:55:21;8.18;;;5.63;;
53269;SDS011;39159;45.634;9.420;2023-09-18T00:57:47;10.13;;;5.70;;
53269;SDS011;39159;45.634;9.420;2023-09-18T01:00:12;8.65;;;5.80;;
53269;SDS011;39159;45.634;9.420;2023-09-18T01:02:43;7.15;;;4.93;;
53269;SDS011;39159;45.634;9.420;2023-09-18T01:05:10;7.47;;;5.18;;
53269;SDS011;39159;45.634;9.420;2023-09-18T01:07:35;8.38;;;5.00;;
53269;SDS011;39159;45.634;9.420;2023-09-18T01:10:01;9.52;;;5.10;;
53269;SDS011;39159;45.634;9.420;2023-09-18T01:12:40;11.88;;;4.82;;
53269;SDS011;39159;45.634;9.420;2023-09-18T01:17:34;6.95;;;5.15;;
53269;SDS011;39159;45.634;9.420;2023-09-18T01:20:05;9.45;;;4.97;;
53269;SDS011;39159;45.634;9.420;2023-09-18T01:22:33;6.30;;;4.90;;
53269;SDS011;39159;45.634;9.420;2023-09-18T01:24:59;6.70;;;4.93;;
53269;SDS011;39159;45.634;9.420;2023-09-18T01:27:24;9.27;;;4.97;;
53269;SDS011;39159;45.634;9.420;2023-09-18T01:29:50;11.38;;;5.75;;
53269;SDS011;39159;45.634;9.420;2023-09-18T01:32:16;12.48;;;5.70;;
53269;SDS011;39159;45.634;9.420;2023-09-18T01:34:51;10.50;;;5.70;;
53269;SDS011;39159;45.634;9.420;2023-09-18T01:37:19;12.35;;;6.25;;
53269;SDS011;39159;45.634;9.420;2023-09-18T01:39:48;9.55;;;5.53;;
53269;SDS011;39159;45.634;9.420;2023-09-18T01:42:14;7.68;;;5.50;;
53269;SDS011;39159;45.634;9.420;2023-09-18T01:44:40;9.23;;;5.65;;
53269;SDS011;39159;45.634;9.420;2023-09-18T01:47:07;8.27;;;5.40;;
53269;SDS011;39159;45.634;9.420;2023-09-18T01:49:37;10.80;;;5.28;;
53269;SDS011;39159;45.634;9.420;2023-09-18T01:52:04;9.20;;;5.57;;
53269;SDS011;39159;45.634;9.420;2023-09-18T01:54:32;7.78;;;5.10;;
53269;SDS011;39159;45.634;9.420;2023-09-18T01:56:58;9.35;;;5.95;;
53269;SDS011;39159;45.634;9.420;2023-09-18T01:59:23;8.80;;;4.93;;
53269;SDS011;39159;45.634;9.420;2023-09-18T02:01:50;10.70;;;5.50;;
53269;SDS011;39159;45.634;9.420;2023-09-18T02:04:16;11.15;;;5.20;;
53269;SDS011;39159;45.634;9.420;2023-09-18T02:06:43;9.93;;;5.28;;
53269;SDS011;39159;45.634;9.420;2023-09-18T02:09:08;9.15;;;5.38;;
53269;SDS011;39159;45.634;9.420;2023-09-18T02:11:38;10.20;;;5.68;;
53269;SDS011;39159;45.634;9.420;2023-09-18T02:14:04;12.55;;;5.60;;
53269;SDS011;39159;45.634;9.420;2023-09-18T02:16:33;14.77;;;5.32;;
53269;SDS011;39159;45.634;9.420;2023-09-18T02:18:59;12.30;;;6.13;;
53269;SDS011;39159;45.634;9.420;2023-09-18T02:21:25;9.75;;;5.93;;
53269;SDS011;39159;45.634;9.420;2023-09-18T02:23:51;10.30;;;5.78;;
53269;SDS011;39159;45.634;9.420;2023-09-18T02:26:17;12.48;;;5.53;;
53269;SDS011;39159;45.634;9.420;2023-09-18T02:28:43;9.82;;;6.22;;
53269;SDS011;39159;45.634;9.420;2023-09-18T02:31:09;11.57;;;5.93;;
53269;SDS011;39159;45.634;9.420;2023-09-18T02:33:34;9.95;;;5.97;;
53269;SDS011;39159;45.634;9.420;2023-09-18T02:35:59;12.80;;;5.75;;
53269;SDS011;39159;45.634;9.420;2023-09-18T02:38:25;12.18;;;5.95;;
53269;SDS011;39159;45.634;9.420;2023-09-18T02:40:51;16.08;;;5.97;;
53269;SDS011;39159;45.634;9.420;2023-09-18T02:43:18;13.65;;;5.15;;
53269;SDS011;39159;45.634;9.420;2023-09-18T02:45:43;16.17;;;6.10;;
53269;SDS011;39159;45.634;9.420;2023-09-18T02:48:10;8.38;;;5.25;;
53269;SDS011;39159;45.634;9.420;2023-09-18T02:50:36;17.27;;;5.68;;
53269;SDS011;39159;45.634;9.420;2023-09-18T02:53:01;12.05;;;5.30;;
53269;SDS011;39159;45.634;9.420;2023-09-18T02:55:28;9.82;;;4.97;;
53269;SDS011;39159;45.634;9.420;2023-09-18T02:57:53;13.98;;;6.25;;
53269;SDS011;39159;45.634;9.420;2023-09-18T03:00:19;8.25;;;5.70;;
53269;SDS011;39159;45.634;9.420;2023-09-18T03:02:44;9.07;;;5.43;;
53269;SDS011;39159;45.634;9.420;2023-09-18T03:05:10;7.32;;;5.45;;
53269;SDS011;39159;45.634;9.420;2023-09-18T03:07:35;5.82;;;4.72;;
53269;SDS011;39159;45.634;9.420;2023-09-18T03:10:01;13.55;;;6.90;;
53269;SDS011;39159;45.634;9.420;2023-09-18T03:12:27;12.60;;;6.72;;
53269;SDS011;39159;45.634;9.420;2023-09-18T03:14:53;13.32;;;6.60;;
53269;SDS011;39159;45.634;9.420;2023-09-18T03:17:18;13.20;;;7.10;;
53269;SDS011;39159;45.634;9.420;2023-09-18T03:19:47;9.10;;;6.65;;
53269;SDS011;39159;45.634;9.420;2023-09-18T03:22:13;9.57;;;6.70;;
53269;SDS011;39159;45.634;9.420;2023-09-18T03:24:39;13.65;;;7.38;;
53269;SDS011;39159;45.634;9.420;2023-09-18T03:27:04;11.20;;;7.13;;
53269;SDS011;39159;45.634;9.420;2023-09-18T03:29:30;15.85;;;7.75;;
53269;SDS011;39159;45.634;9.420;2023-09-18T03:31:55;11.90;;;7.60;;
53269;SDS011;39159;45.634;9.420;2023-09-18T03:34:23;14.88;;;7.90;;
53269;SDS011;39159;45.634;9.420;2023-09-18T03:36:51;17.10;;;7.60;;
53269;SDS011;39159;45.634;9.420;2023-09-18T03:39:16;10.98;;;7.85;;
53269;SDS011;39159;45.634;9.420;2023-09-18T03:41:42;11.40;;;7.95;;
53269;SDS011;39159;45.634;9.420;2023-09-18T03:44:07;13.40;;;7.75;;
53269;SDS011;39159;45.634;9.420;2023-09-18T03:46:33;7.55;;;6.45;;
53269;SDS011;39159;45.634;9.420;2023-09-18T03:48:59;15.15;;;7.60;;
53269;SDS011;39159;45.634;9.420;2023-09-18T03:51:24;10.70;;;6.72;;
53269;SDS011;39159;45.634;9.420;2023-09-18T03:53:50;9.50;;;7.68;;
53269;SDS011;39159;45.634;9.420;2023-09-18T03:56:16;12.45;;;7.70;;
53269;SDS011;39159;45.634;9.420;2023-09-18T03:58:41;15.07;;;7.65;;
53269;SDS011;39159;45.634;9.420;2023-09-18T04:01:07;11.85;;;7.65;;
53269;SDS011;39159;45.634;9.420;2023-09-18T04:03:32;13.25;;;7.60;;
53269;SDS011;39159;45.634;9.420;2023-09-18T04:05:58;14.55;;;7.50;;
53269;SDS011;39159;45.634;9.420;2023-09-18T04:08:23;11.70;;;7.68;;
53269;SDS011;39159;45.634;9.420;2023-09-18T04:10:49;11.93;;;7.13;;
53269;SDS011;39159;45.634;9.420;2023-09-18T04:13:14;10.52;;;7.13;;
53269;SDS011;39159;45.634;9.420;2023-09-18T04:15:39;11.05;;;7.07;;
53269;SDS011;39159;45.634;9.420;2023-09-18T04:18:05;10.20;;;6.20;;
53269;SDS011;39159;45.634;9.420;2023-09-18T04:20:30;16.80;;;8.38;;
53269;SDS011;39159;45.634;9.420;2023-09-18T04:25:46;11.73;;;8.43;;
53269;SDS011;39159;45.634;9.420;2023-09-18T04:28:12;13.00;;;8.23;;
53269;SDS011;39159;45.634;9.420;2023-09-18T04:30:38;12.13;;;8.35;;
53269;SDS011;39159;45.634;9.420;2023-09-18T04:33:03;11.63;;;8.60;;
53269;SDS011;39159;45.634;9.420;2023-09-18T04:35:29;15.82;;;9.02;;
53269;SDS011;39159;45.634;9.420;2023-09-18T04:37:56;14.98;;;9.57;;
53269;SDS011;39159;45.634;9.420;2023-09-18T04:40:21;23.13;;;10.68;;
53269;SDS011;39159;45.634;9.420;2023-09-18T04:42:49;15.77;;;10.45;;
53269;SDS011;39159;45.634;9.420;2023-09-18T04:45:14;21.65;;;12.15;;
53269;SDS011;39159;45.634;9.420;2023-09-18T04:47:41;18.90;;;12.18;;
53269;SDS011;39159;45.634;9.420;2023-09-18T04:50:06;16.02;;;11.82;;
53269;SDS011;39159;45.634;9.420;2023-09-18T04:52:34;20.25;;;12.90;;
53269;SDS011;39159;45.634;9.420;2023-09-18T04:55:03;24.75;;;14.13;;
53269;SDS011;39159;45.634;9.420;2023-09-18T04:57:30;22.80;;;14.15;;
53269;SDS011;39159;45.634;9.420;2023-09-18T04:59:56;23.42;;;14.05;;
53269;SDS011;39159;45.634;9.420;2023-09-18T05:02:21;22.75;;;14.00;;
53269;SDS011;39159;45.634;9.420;2023-09-18T05:04:47;26.80;;;16.70;;
53269;SDS011;39159;45.634;9.420;2023-09-18T05:07:12;30.60;;;18.95;;
53269;SDS011;39159;45.634;9.420;2023-09-18T05:09:37;31.88;;;20.90;;
53269;SDS011;39159;45.634;9.420;2023-09-18T05:12:05;28.00;;;19.00;;
53269;SDS011;39159;45.634;9.420;2023-09-18T05:14:33;32.25;;;20.45;;
53269;SDS011;39159;45.634;9.420;2023-09-18T05:16:59;31.48;;;18.85;;
53269;SDS011;39159;45.634;9.420;2023-09-18T05:19:25;25.73;;;16.83;;
53269;SDS011;39159;45.634;9.420;2023-09-18T05:21:50;26.75;;;16.23;;
53269;SDS011;39159;45.634;9.420;2023-09-18T05:24:15;25.33;;;17.55;;
53269;SDS011;39159;45.634;9.420;2023-09-18T05:26:41;28.55;;;18.02;;
53269;SDS011;39159;45.634;9.420;2023-09-18T05:29:06;26.67;;;17.35;;
53269;SDS011;39159;45.634;9.420;2023-09-18T05:31:32;34.22;;;20.08;;
53269;SDS011;39159;45.634;9.420;2023-09-18T05:33:57;25.90;;;18.42;;
53269;SDS011;39159;45.634;9.420;2023-09-18T05:36:23;32.42;;;21.30;;
53269;SDS011;39159;45.634;9.420;2023-09-18T05:38:49;38.90;;;21.85;;
53269;SDS011;39159;45.634;9.420;2023-09-18T05:41:14;32.45;;;20.77;;
53269;SDS011;39159;45.634;9.420;2023-09-18T05:43:40;31.00;;;21.85;;
53269;SDS011;39159;45.634;9.420;2023-09-18T05:46:05;37.25;;;22.17;;
53269;SDS011;39159;45.634;9.420;2023-09-18T05:48:31;37.35;;;21.83;;
53269;SDS011;39159;45.634;9.420;2023-09-18T05:50:56;40.13;;;25.75;;
53269;SDS011;39159;45.634;9.420;2023-09-18T05:53:22;32.45;;;21.48;;
53269;SDS011;39159;45.634;9.420;2023-09-18T05:55:47;33.47;;;22.23;;
53269;SDS011;39159;45.634;9.420;2023-09-18T05:58:12;35.45;;;25.00;;
53269;SDS011;39159;45.634;9.420;2023-09-18T06:00:39;33.15;;;22.40;;
53269;SDS011;39159;45.634;9.420;2023-09-18T06:03:04;38.40;;;27.50;;
53269;SDS011;39159;45.634;9.420;2023-09-18T06:05:31;44.17;;;28.50;;
53269;SDS011;39159;45.634;9.420;2023-09-18T06:07:56;43.03;;;29.65;;
53269;SDS011;39159;45.634;9.420;2023-09-18T06:10:21;50.70;;;31.45;;
53269;SDS011;39159;45.634;9.420;2023-09-18T06:12:47;47.78;;;29.80;;
53269;SDS011;39159;45.634;9.420;2023-09-18T06:15:12;41.78;;;28.80;;
53269;SDS011;39159;45.634;9.420;2023-09-18T06:17:40;44.25;;;27.48;;
53269;SDS011;39159;45.634;9.420;2023-09-18T06:20:07;42.28;;;25.33;;
53269;SDS011;39159;45.634;9.420;2023-09-18T06:22:38;34.35;;;23.33;;
53269;SDS011;39159;45.634;9.420;2023-09-18T06:25:07;32.65;;;20.42;;
53269;SDS011;39159;45.634;9.420;2023-09-18T06:27:35;35.25;;;19.60;;
53269;SDS011;39159;45.634;9.420;2023-09-18T06:30:01;25.33;;;16.27;;
53269;SDS011;39159;45.634;9.420;2023-09-18T06:32:28;30.35;;;19.92;;
53269;SDS011;39159;45.634;9.420;2023-09-18T06:34:53;34.15;;;21.13;;
53269;SDS011;39159;45.634;9.420;2023-09-18T06:37:19;30.63;;;22.33;;
53269;SDS011;39159;45.634;9.420;2023-09-18T06:39:45;33.83;;;23.52;;
53269;SDS011;39159;45.634;9.420;2023-09-18T06:42:10;39.03;;;26.05;;
53269;SDS011;39159;45.634;9.420;2023-09-18T06:44:36;38.30;;;26.92;;
53269;SDS011;39159;45.634;9.420;2023-09-18T06:47:02;39.33;;;27.10;;
53269;SDS011;39159;45.634;9.420;2023-09-18T06:49:28;45.47;;;28.77;;
53269;SDS011;39159;45.634;9.420;2023-09-18T06:51:53;47.50;;;27.83;;
53269;SDS011;39159;45.634;9.420;2023-09-18T06:54:18;41.90;;;27.45;;
53269;SDS011;39159;45.634;9.420;2023-09-18T06:56:44;37.47;;;26.27;;
53269;SDS011;39159;45.634;9.420;2023-09-18T06:59:09;41.70;;;27.67;;
53269;SDS011;39159;45.634;9.420;2023-09-18T07:01:36;38.63;;;26.05;;
53269;SDS011;39159;45.634;9.420;2023-09-18T07:04:01;39.55;;;26.45;;
53269;SDS011;39159;45.634;9.420;2023-09-18T07:06:29;37.95;;;23.60;;
53269;SDS011;39159;45.634;9.420;2023-09-18T07:08:54;37.85;;;24.42;;
53269;SDS011;39159;45.634;9.420;2023-09-18T07:11:20;31.83;;;20.13;;
53269;SDS011;39159;45.634;9.420;2023-09-18T07:13:45;30.25;;;19.95;;
53269;SDS011;39159;45.634;9.420;2023-09-18T07:16:11;31.40;;;19.08;;
53269;SDS011;39159;45.634;9.420;2023-09-18T07:18:36;28.55;;;17.05;;
53269;SDS011;39159;45.634;9.420;2023-09-18T07:21:03;28.08;;;17.02;;
53269;SDS011;39159;45.634;9.420;2023-09-18T07:23:28;25.20;;;14.77;;
53269;SDS011;39159;45.634;9.420;2023-09-18T07:25:53;23.73;;;14.40;;
53269;SDS011;39159;45.634;9.420;2023-09-18T07:28:19;34.30;;;15.98;;
53269;SDS011;39159;45.634;9.420;2023-09-18T07:30:44;21.15;;;15.15;;
53269;SDS011;39159;45.634;9.420;2023-09-18T07:33:11;23.70;;;15.25;;
53269;SDS011;39159;45.634;9.420;2023-09-18T07:35:36;27.05;;;15.60;;
53269;SDS011;39159;45.634;9.420;2023-09-18T07:38:02;25.02;;;15.55;;
53269;SDS011;39159;45.634;9.420;2023-09-18T07:40:28;25.63;;;16.38;;
53269;SDS011;39159;45.634;9.420;2023-09-18T07:42:54;24.00;;;16.00;;
53269;SDS011;39159;45.634;9.420;2023-09-18T07:45:19;26.20;;;16.05;;
53269;SDS011;39159;45.634;9.420;2023-09-18T07:47:45;24.13;;;15.73;;
53269;SDS011;39159;45.634;9.420;2023-09-18T07:50:10;24.48;;;16.70;;
53269;SDS011;39159;45.634;9.420;2023-09-18T07:52:35;30.00;;;16.80;;
53269;SDS011;39159;45.634;9.420;2023-09-18T07:55:01;24.15;;;16.80;;
53269;SDS011;39159;45.634;9.420;2023-09-18T07:57:27;25.40;;;15.05;;
53269;SDS011;39159;45.634;9.420;2023-09-18T07:59:57;30.55;;;17.17;;
53269;SDS011;39159;45.634;9.420;2023-09-18T08:02:23;25.85;;;15.18;;
53269;SDS011;39159;45.634;9.420;2023-09-18T08:04:50;24.98;;;16.83;;
53269;SDS011;39159;45.634;9.420;2023-09-18T08:07:17;27.20;;;16.80;;
53269;SDS011;39159;45.634;9.420;2023-09-18T08:09:44;28.38;;;17.35;;
53269;SDS011;39159;45.634;9.420;2023-09-18T08:12:09;25.98;;;16.80;;
53269;SDS011;39159;45.634;9.420;2023-09-18T08:14:35;27.27;;;16.30;;
53269;SDS011;39159;45.634;9.420;2023-09-18T08:17:01;28.48;;;16.80;;
53269;SDS011;39159;45.634;9.420;2023-09-18T08:19:29;26.65;;;17.15;;
53269;SDS011;39159;45.634;9.420;2023-09-18T08:21:55;31.92;;;16.58;;
53269;SDS011;39159;45.634;9.420;2023-09-18T08:24:21;32.38;;;16.95;;
53269;SDS011;39159;45.634;9.420;2023-09-18T08:26:47;33.35;;;17.00;;
53269;SDS011;39159;45.634;9.420;2023-09-18T08:29:13;24.38;;;16.75;;
53269;SDS011;39159;45.634;9.420;2023-09-18T08:31:38;26.40;;;17.33;;
53269;SDS011;39159;45.634;9.420;2023-09-18T08:34:04;27.67;;;17.08;;
53269;SDS011;39159;45.634;9.420;2023-09-18T08:36:29;27.83;;;17.08;;
53269;SDS011;39159;45.634;9.420;2023-09-18T08:38:55;24.10;;;16.98;;
53269;SDS011;39159;45.634;9.420;2023-09-18T08:41:21;32.05;;;17.50;;
53269;SDS011;39159;45.634;9.420;2023-09-18T08:43:52;25.25;;;17.27;;
53269;SDS011;39159;45.634;9.420;2023-09-18T08:46:21;31.38;;;17.73;;
53269;SDS011;39159;45.634;9.420;2023-09-18T08:48:47;30.98;;;18.60;;
53269;SDS011;39159;45.634;9.420;2023-09-18T08:51:15;26.30;;;18.67;;
53269;SDS011;39159;45.634;9.420;2023-09-18T08:53:43;30.63;;;18.67;;
53269;SDS011;39159;45.634;9.420;2023-09-18T08:56:09;28.30;;;18.60;;
53269;SDS011;39159;45.634;9.420;2023-09-18T08:58:37;27.15;;;18.15;;
53269;SDS011;39159;45.634;9.420;2023-09-18T09:01:07;30.35;;;19.67;;
53269;SDS011;39159;45.634;9.420;2023-09-18T09:03:44;32.70;;;21.10;;
53269;SDS011;39159;45.634;9.420;2023-09-18T09:06:12;33.08;;;21.08;;
53269;SDS011;39159;45.634;9.420;2023-09-18T09:08:38;30.00;;;21.33;;
53269;SDS011;39159;45.634;9.420;2023-09-18T09:11:04;32.22;;;21.27;;
53269;SDS011;39159;45.634;9.420;2023-09-18T09:13:30;34.58;;;21.15;;
53269;SDS011;39159;45.634;9.420;2023-09-18T09:15:56;30.25;;;20.15;;
53269;SDS011;39159;45.634;9.420;2023-09-18T09:18:23;32.17;;;22.40;;
53269;SDS011;39159;45.634;9.420;2023-09-18T09:21:07;30.33;;;22.38;;
53269;SDS011;39159;45.634;9.420;2023-09-18T09:26:17;35.20;;;23.25;;
53269;SDS011;39159;45.634;9.420;2023-09-18T09:28:44;31.77;;;22.70;;
53269;SDS011;39159;45.634;9.420;2023-09-18T09:31:10;33.78;;;22.42;;
53269;SDS011;39159;45.634;9.420;2023-09-18T09:33:36;35.58;;;22.73;;
53269;SDS011;39159;45.634;9.420;2023-09-18T09:36:06;32.63;;;22.30;;
53269;SDS011;39159;45.634;9.420;2023-09-18T09:38:32;36.17;;;21.73;;
53269;SDS011;39159;45.634;9.420;2023-09-18T09:41:02;32.47;;;22.25;;
53269;SDS011;39159;45.634;9.420;2023-09-18T09:43:31;37.55;;;23.88;;
53269;SDS011;39159;45.634;9.420;2023-09-18T09:45:58;37.15;;;23.92;;
53269;SDS011;39159;45.634;9.420;2023-09-18T09:48:24;32.97;;;22.65;;
53269;SDS011;39159;45.634;9.420;2023-09-18T09:50:50;39.22;;;23.42;;
53269;SDS011;39159;45.634;9.420;2023-09-18T09:53:17;34.40;;;22.40;;
53269;SDS011;39159;45.634;9.420;2023-09-18T09:55:43;39.47;;;22.23;;
53269;SDS011;39159;45.634;9.420;2023-09-18T09:58:09;40.25;;;23.00;;
53269;SDS011;39159;45.634;9.420;2023-09-18T10:00:45;40.95;;;24.02;;
53269;SDS011;39159;45.634;9.420;2023-09-18T10:03:15;34.90;;;22.48;;
53269;SDS011;39159;45.634;9.420;2023-09-18T10:05:42;37.97;;;24.00;;
53269;SDS011;39159;45.634;9.420;2023-09-18T10:13:29;37.83;;;23.10;;
53269;SDS011;39159;45.634;9.420;2023-09-18T10:15:58;36.10;;;22.48;;
53269;SDS011;39159;45.634;9.420;2023-09-18T10:18:28;36.47;;;23.35;;
53269;SDS011;39159;45.634;9.420;2023-09-18T10:21:29;38.45;;;23.15;;
53269;SDS011;39159;45.634;9.420;2023-09-18T10:26:55;36.63;;;23.02;;
53269;SDS011;39159;45.634;9.420;2023-09-18T10:29:25;44.30;;;24.58;;
53269;SDS011;39159;45.634;9.420;2023-09-18T10:31:52;43.22;;;25.10;;
53269;SDS011;39159;45.634;9.420;2023-09-18T10:34:19;37.85;;;25.88;;
53269;SDS011;39159;45.634;9.420;2023-09-18T10:36:46;34.83;;;22.52;;
53269;SDS011;39159;45.634;9.420;2023-09-18T10:39:13;32.22;;;22.88;;
53269;SDS011;39159;45.634;9.420;2023-09-18T10:41:44;31.98;;;23.00;;
53269;SDS011;39159;45.634;9.420;2023-09-18T10:44:13;38.35;;;24.00;;
53269;SDS011;39159;45.634;9.420;2023-09-18T10:46:41;28.25;;;20.27;;
53269;SDS011;39159;45.634;9.420;2023-09-18T10:49:07;36.30;;;23.27;;
53269;SDS011;39159;45.634;9.420;2023-09-18T10:51:33;28.05;;;19.88;;
53269;SDS011;39159;45.634;9.420;2023-09-18T10:53:59;28.60;;;19.30;;
53269;SDS011;39159;45.634;9.420;2023-09-18T10:56:25;29.23;;;20.13;;
53269;SDS011;39159;45.634;9.420;2023-09-18T10:59:00;29.92;;;18.92;;
53269;SDS011;39159;45.634;9.420;2023-09-18T11:01:31;28.65;;;18.55;;
53269;SDS011;39159;45.634;9.420;2023-09-18T11:03:57;31.02;;;18.50;;
53269;SDS011;39159;45.634;9.420;2023-09-18T11:06:25;28.90;;;18.63;;
53269;SDS011;39159;45.634;9.420;2023-09-18T11:08:53;28.98;;;18.13;;
53269;SDS011;39159;45.634;9.420;2023-09-18T11:11:26;28.17;;;18.58;;
53269;SDS011;39159;45.634;9.420;2023-09-18T11:13:55;28.15;;;19.27;;
53269;SDS011;39159;45.634;9.420;2023-09-18T11:19:16;31.30;;;21.08;;
53269;SDS011;39159;45.634;9.420;2023-09-18T11:21:42;21.50;;;15.90;;
53269;SDS011;39159;45.634;9.420;2023-09-18T11:24:19;26.23;;;15.70;;
53269;SDS011;39159;45.634;9.420;2023-09-18T11:26:47;20.85;;;13.95;;
53269;SDS011;39159;45.634;9.420;2023-09-18T11:29:15;31.52;;;14.52;;
53269;SDS011;39159;45.634;9.420;2023-09-18T11:31:53;19.17;;;14.20;;
53269;SDS011;39159;45.634;9.420;2023-09-18T11:36:51;28.75;;;17.70;;
53269;SDS011;39159;45.634;9.420;2023-09-18T11:42:17;28.02;;;16.10;;
53269;SDS011;39159;45.634;9.420;2023-09-18T11:44:44;26.02;;;16.02;;
53269;SDS011;39159;45.634;9.420;2023-09-18T11:47:19;26.95;;;17.52;;
53269;SDS011;39159;45.634;9.420;2023-09-18T11:49:53;28.63;;;17.30;;
53269;SDS011;39159;45.634;9.420;2023-09-18T11:52:29;26.83;;;15.35;;
53269;SDS011;39159;45.634;9.420;2023-09-18T11:54:57;26.73;;;16.73;;
53269;SDS011;39159;45.634;9.420;2023-09-18T11:57:23;26.98;;;17.77;;
53269;SDS011;39159;45.634;9.420;2023-09-18T11:59:50;28.50;;;17.35;;
53269;SDS011;39159;45.634;9.420;2023-09-18T12:02:28;31.48;;;18.63;;
53269;SDS011;39159;45.634;9.420;2023-09-18T12:05:05;33.28;;;19.08;;
53269;SDS011;39159;45.634;9.420;2023-09-18T12:07:34;29.50;;;18.02;;
53269;SDS011;39159;45.634;9.420;2023-09-18T12:10:00;26.40;;;17.23;;
53269;SDS011;39159;45.634;9.420;2023-09-18T12:12:29;32.22;;;18.52;;
53269;SDS011;39159;45.634;9.420;2023-09-18T12:14:56;27.33;;;18.27;;
53269;SDS011;39159;45.634;9.420;2023-09-18T12:17:22;22.95;;;17.45;;
53269;SDS011;39159;45.634;9.420;2023-09-18T12:19:56;24.20;;;16.45;;
53269;SDS011;39159;45.634;9.420;2023-09-18T12:22:28;35.28;;;18.27;;
53269;SDS011;39159;45.634;9.420;2023-09-18T12:25:11;27.48;;;18.33;;
53269;SDS011;39159;45.634;9.420;2023-09-18T12:27:37;22.83;;;15.75;;
53269;SDS011;39159;45.634;9.420;2023-09-18T12:30:03;22.73;;;15.80;;
53269;SDS011;39159;45.634;9.420;2023-09-18T12:32:32;31.88;;;16.92;;
53269;SDS011;39159;45.634;9.420;2023-09-18T12:35:00;23.05;;;15.20;;
53269;SDS011;39159;45.634;9.420;2023-09-18T12:37:26;24.73;;;15.57;;
53269;SDS011;39159;45.634;9.420;2023-09-18T12:39:51;28.90;;;15.82;;
53269;SDS011;39159;45.634;9.420;2023-09-18T12:42:20;23.20;;;16.02;;
53269;SDS011;39159;45.634;9.420;2023-09-18T12:44:49;23.40;;;15.43;;
53269;SDS011;39159;45.634;9.420;2023-09-18T12:47:15;24.58;;;17.98;;
53269;SDS011;39159;45.634;9.420;2023-09-18T12:49:41;28.40;;;17.92;;
53269;SDS011;39159;45.634;9.420;2023-09-18T12:52:06;24.65;;;17.30;;
53269;SDS011;39159;45.634;9.420;2023-09-18T12:54:38;24.30;;;17.52;;
53269;SDS011;39159;45.634;9.420;2023-09-18T12:57:07;28.73;;;17.88;;
53269;SDS011;39159;45.634;9.420;2023-09-18T12:59:35;22.00;;;16.33;;
53269;SDS011;39159;45.634;9.420;2023-09-18T13:02:02;23.17;;;15.98;;
53269;SDS011;39159;45.634;9.420;2023-09-18T13:04:30;29.25;;;17.17;;
53269;SDS011;39159;45.634;9.420;2023-09-18T13:07:08;28.35;;;16.73;;
53269;SDS011;39159;45.634;9.420;2023-09-18T13:09:35;26.40;;;16.73;;
53269;SDS011;39159;45.634;9.420;2023-09-18T13:12:02;26.05;;;16.30;;
53269;SDS011;39159;45.634;9.420;2023-09-18T13:14:28;27.38;;;17.23;;
53269;SDS011;39159;45.634;9.420;2023-09-18T13:17:00;29.30;;;17.52;;
53269;SDS011;39159;45.634;9.420;2023-09-18T13:19:25;29.67;;;16.67;;
53269;SDS011;39159;45.634;9.420;2023-09-18T13:21:50;26.67;;;16.98;;
53269;SDS011;39159;45.634;9.420;2023-09-18T13:24:26;27.83;;;18.58;;
53269;SDS011;39159;45.634;9.420;2023-09-18T13:26:52;24.38;;;16.88;;
53269;SDS011;39159;45.634;9.420;2023-09-18T13:29:18;30.45;;;17.38;;
53269;SDS011;39159;45.634;9.420;2023-09-18T13:31:44;27.23;;;17.00;;
53269;SDS011;39159;45.634;9.420;2023-09-18T13:34:09;24.95;;;16.27;;
53269;SDS011;39159;45.634;9.420;2023-09-18T13:36:34;26.50;;;16.92;;
53269;SDS011;39159;45.634;9.420;2023-09-18T13:39:00;23.27;;;17.00;;
53269;SDS011;39159;45.634;9.420;2023-09-18T13:41:25;26.95;;;16.25;;
53269;SDS011;39159;45.634;9.420;2023-09-18T13:43:51;30.70;;;18.75;;
53269;SDS011;39159;45.634;9.420;2023-09-18T13:46:20;34.95;;;17.83;;
53269;SDS011;39159;45.634;9.420;2023-09-18T13:48:46;30.20;;;17.75;;
53269;SDS011;39159;45.634;9.420;2023-09-18T13:51:12;26.67;;;17.98;;
53269;SDS011;39159;45.634;9.420;2023-09-18T13:53:38;34.05;;;19.80;;
53269;SDS011;39159;45.634;9.420;2023-09-18T13:56:04;39.58;;;19.77;;
53269;SDS011;39159;45.634;9.420;2023-09-18T13:58:30;38.80;;;19.70;;
53269;SDS011;39159;45.634;9.420;2023-09-18T14:00:55;28.67;;;19.10;;
53269;SDS011;39159;45.634;9.420;2023-09-18T14:03:22;31.55;;;19.75;;
53269;SDS011;39159;45.634;9.420;2023-09-18T14:05:48;34.25;;;18.75;;
53269;SDS011;39159;45.634;9.420;2023-09-18T14:08:15;39.05;;;19.67;;
53269;SDS011;39159;45.634;9.420;2023-09-18T14:10:42;31.65;;;18.90;;
53269;SDS011;39159;45.634;9.420;2023-09-18T14:13:08;31.30;;;21.00;;
53269;SDS011;39159;45.634;9.420;2023-09-18T14:15:33;29.42;;;20.60;;
53269;SDS011;39159;45.634;9.420;2023-09-18T14:17:59;37.05;;;21.60;;
53269;SDS011;39159;45.634;9.420;2023-09-18T14:20:30;31.65;;;20.08;;
53269;SDS011;39159;45.634;9.420;2023-09-18T14:22:56;35.47;;;22.13;;
53269;SDS011;39159;45.634;9.420;2023-09-18T14:25:21;37.17;;;22.60;;
53269;SDS011;39159;45.634;9.420;2023-09-18T14:27:47;35.78;;;22.02;;
53269;SDS011;39159;45.634;9.420;2023-09-18T14:30:13;38.95;;;23.00;;
53269;SDS011;39159;45.634;9.420;2023-09-18T14:32:38;39.65;;;21.80;;
53269;SDS011;39159;45.634;9.420;2023-09-18T14:35:04;38.10;;;21.67;;
53269;SDS011;39159;45.634;9.420;2023-09-18T14:37:30;39.88;;;22.48;;
53269;SDS011;39159;45.634;9.420;2023-09-18T14:39:56;35.78;;;22.92;;
53269;SDS011;39159;45.634;9.420;2023-09-18T14:42:21;33.33;;;22.50;;
53269;SDS011;39159;45.634;9.420;2023-09-18T14:44:47;40.22;;;23.48;;
53269;SDS011;39159;45.634;9.420;2023-09-18T14:47:13;40.88;;;21.58;;
53269;SDS011;39159;45.634;9.420;2023-09-18T14:49:38;45.67;;;21.35;;
53269;SDS011;39159;45.634;9.420;2023-09-18T14:52:04;32.83;;;22.38;;